La Guardia Airport New York US
ICAO: KLGA
IATA: LGA
Category: Large
Scheduled Services: Yes

Elevation: 21 ft
TransAlt. 18000 ft.

Airport Communications:
NEW YORK APP:118
NEW YORK APP:132.7
ATIS:125.95
CLNC DEL:121.875
NEW YORK DEP:120.4
GND:121.7
TWR:118.7
UNICOM:122.95

KLGA Zoom In..

If you have problems with the map follow the link
https://www.worldairports.se/pages/airport.php?
ICAO=KLGA

Runways:

(A) RW 04 length 7001 ft width 150 ft
ILS 110.50 / hdg 44

(B) RW 13 length 7003 ft width 150 ft
ILS 108.50 / hdg 134

(C) RW 22 length 7001 ft width 150 ft
ILS 110.50 / hdg 224

(D) RW 31 length 7003 ft width 150 ft
LOC 108.50 / hdg 314

Location; KLGA
Day. 23 / Time. 07.51 Zulu
* Altimeter: 30.12
* Temperature: 08° c. 46.4°f.
* Wind from: 200° Speed 06 kn.
Dewpoint: 04° c.
Visibility: 10 Statute Miles.
Clouds: Overcast 1000 ft.

KLGA 230751Z 20006KT 10SM OVC100 08/04 A3012 RMK AO2 SLP198 T00830044 $


Wind From 200°
Speed 06 kn.

 
 
jpsmedia.com for Web Design worldairports.se 2018   terms of use